createdAt,value
2018-06-10T00:01:05.966Z,30.73
2018-06-10T00:03:34.454Z,30.63
2018-06-10T00:06:03.154Z,28.40
2018-06-10T00:08:31.698Z,30.27
2018-06-10T00:11:00.294Z,30.00
2018-06-10T00:13:28.794Z,27.17
2018-06-10T00:15:57.294Z,26.90
2018-06-10T00:18:25.786Z,29.30
2018-06-10T00:20:54.522Z,29.17
2018-06-10T00:23:23.174Z,30.27
2018-06-10T00:25:51.693Z,28.43
2018-06-10T00:28:25.589Z,29.17
2018-06-10T00:30:54.109Z,29.67
2018-06-10T00:33:22.590Z,30.07
2018-06-10T00:35:51.917Z,29.83
2018-06-10T00:38:20.406Z,29.87
2018-06-10T00:40:48.881Z,32.00
2018-06-10T00:43:17.370Z,31.70
2018-06-10T00:45:45.865Z,33.00
2018-06-10T00:48:14.398Z,33.00
2018-06-10T00:50:42.889Z,31.20
2018-06-10T00:53:11.401Z,33.93
2018-06-10T00:55:39.887Z,32.40
2018-06-10T00:58:08.455Z,31.90
2018-06-10T01:00:36.982Z,33.50
2018-06-10T01:03:05.467Z,32.10
2018-06-10T01:05:33.930Z,32.50
2018-06-10T01:08:02.571Z,31.87
2018-06-10T01:10:31.050Z,30.90
2018-06-10T01:12:59.522Z,32.60
2018-06-10T01:15:28.422Z,32.23
2018-06-10T01:17:56.882Z,32.57
2018-06-10T01:20:25.375Z,30.80
2018-06-10T01:22:53.973Z,32.03
2018-06-10T01:25:22.474Z,32.23
2018-06-10T01:27:50.997Z,32.03
2018-06-10T01:30:19.717Z,30.50
2018-06-10T01:32:48.202Z,31.50
2018-06-10T01:35:16.716Z,28.07
2018-06-10T01:37:45.180Z,31.37
2018-06-10T01:40:13.649Z,31.47
2018-06-10T01:42:42.192Z,32.03
2018-06-10T01:45:10.705Z,32.93
2018-06-10T01:47:39.325Z,31.93
2018-06-10T01:50:07.802Z,32.20
2018-06-10T01:52:36.270Z,32.90
2018-06-10T01:55:05.079Z,32.63
2018-06-10T01:57:33.807Z,31.20
2018-06-10T02:00:02.266Z,32.87
2018-06-10T02:02:30.771Z,30.13
2018-06-10T02:04:59.225Z,31.60
2018-06-10T02:07:28.141Z,32.00
2018-06-10T02:09:56.607Z,32.03
2018-06-10T02:12:25.089Z,32.13
2018-06-10T02:14:53.738Z,31.30
2018-06-10T02:17:22.257Z,31.07
2018-06-10T02:19:50.718Z,31.57
2018-06-10T02:22:19.425Z,31.60
2018-06-10T02:24:47.896Z,32.00
2018-06-10T02:27:16.373Z,31.53
2018-06-10T02:29:45.015Z,31.17
2018-06-10T02:32:13.469Z,31.97
2018-06-10T02:34:41.955Z,28.80
2018-06-10T02:37:10.599Z,30.10
2018-06-10T02:39:39.090Z,29.63
2018-06-10T02:42:07.558Z,30.70
2018-06-10T02:44:36.097Z,28.70
2018-06-10T02:47:05.069Z,32.47
2018-06-10T02:49:33.553Z,31.07
2018-06-10T02:52:02.369Z,30.03
2018-06-10T02:54:30.986Z,33.87
2018-06-10T02:56:59.462Z,31.63
2018-06-10T02:59:27.981Z,32.37
2018-06-10T03:01:56.470Z,31.47
2018-06-10T03:04:24.973Z,32.23
2018-06-10T03:06:53.671Z,32.00
2018-06-10T03:09:22.166Z,30.77
2018-06-10T03:11:50.653Z,34.17
2018-06-10T03:14:19.164Z,31.30
2018-06-10T03:16:48.158Z,32.43
2018-06-10T03:19:16.622Z,30.93
2018-06-10T03:21:45.217Z,33.70
2018-06-10T03:24:14.041Z,32.30
2018-06-10T03:26:42.578Z,32.40
2018-06-10T03:29:11.029Z,31.20
2018-06-10T03:31:39.582Z,34.43
2018-06-10T03:34:08.062Z,34.17
2018-06-10T03:36:36.529Z,34.30
2018-06-10T03:39:07.459Z,33.57
2018-06-10T03:41:36.209Z,34.77
2018-06-10T03:44:04.701Z,34.20
2018-06-10T03:46:33.373Z,32.50
2018-06-10T03:49:02.242Z,32.03
2018-06-10T03:51:30.743Z,32.93
2018-06-10T03:53:59.788Z,31.63
2018-06-10T03:56:28.267Z,28.97
2018-06-10T03:58:56.757Z,28.97
2018-06-10T04:01:25.322Z,29.27
2018-06-10T04:03:53.828Z,31.70
2018-06-10T04:06:22.297Z,27.23
2018-06-10T04:08:51.583Z,28.33
2018-06-10T04:11:20.038Z,27.27
2018-06-10T04:13:48.590Z,29.70
2018-06-10T04:16:17.086Z,27.53
2018-06-10T04:18:45.575Z,25.90
2018-06-10T04:21:14.085Z,25.80
2018-06-10T04:23:42.601Z,26.90
2018-06-10T04:26:11.081Z,26.70
2018-06-10T04:28:39.578Z,27.53
2018-06-10T04:31:08.111Z,27.37
2018-06-10T04:33:36.570Z,28.00
2018-06-10T04:36:05.037Z,28.73
2018-06-10T04:38:33.545Z,29.30
2018-06-10T04:41:02.054Z,28.63
2018-06-10T04:43:30.536Z,28.83
2018-06-10T04:45:59.022Z,32.37
2018-06-10T04:48:27.488Z,31.30
2018-06-10T04:50:56.192Z,30.57
2018-06-10T04:53:24.687Z,30.13
2018-06-10T04:55:53.158Z,29.47
2018-06-10T04:58:21.672Z,30.33
2018-06-10T05:00:50.166Z,30.77
2018-06-10T05:03:18.655Z,30.90
2018-06-10T05:05:47.121Z,33.83
2018-06-10T05:08:15.595Z,32.77
2018-06-10T05:10:44.084Z,34.80
2018-06-10T05:13:12.586Z,30.27
2018-06-10T05:15:41.081Z,29.23
2018-06-10T05:18:09.620Z,32.07
2018-06-10T05:20:38.098Z,33.37
2018-06-10T05:23:06.586Z,35.33
2018-06-10T05:25:35.118Z,36.50
2018-06-10T05:28:03.602Z,35.00
2018-06-10T05:30:32.065Z,33.83
2018-06-10T05:33:00.570Z,32.10
2018-06-10T05:35:29.070Z,28.50
2018-06-10T05:37:57.601Z,33.30
2018-06-10T05:40:26.245Z,33.10
2018-06-10T05:42:54.710Z,31.90
2018-06-10T05:45:23.197Z,30.13
2018-06-10T05:47:51.763Z,29.17
2018-06-10T05:50:20.225Z,31.27
2018-06-10T05:52:48.785Z,30.37
2018-06-10T05:55:17.280Z,29.57
2018-06-10T05:57:45.780Z,32.30
2018-06-10T06:00:14.293Z,29.67
2018-06-10T06:02:42.773Z,30.80
2018-06-10T06:05:11.290Z,29.70
2018-06-10T06:07:39.780Z,31.43
2018-06-10T06:10:08.256Z,29.93
2018-06-10T06:12:36.770Z,27.80
2018-06-10T06:15:05.366Z,27.70
2018-06-10T06:17:34.056Z,24.53
2018-06-10T06:20:02.549Z,28.70
2018-06-10T06:22:31.129Z,27.67
2018-06-10T06:24:59.612Z,28.07
2018-06-10T06:27:28.302Z,26.50
2018-06-10T06:29:56.824Z,26.63
2018-06-10T06:32:25.301Z,25.50
2018-06-10T06:34:53.882Z,26.47
2018-06-10T06:37:22.374Z,25.10
2018-06-10T06:39:50.905Z,23.03
2018-06-10T06:42:19.401Z,24.37
2018-06-10T06:44:47.880Z,24.43
2018-06-10T06:47:16.383Z,22.77
2018-06-10T06:49:44.854Z,25.17
2018-06-10T06:52:13.441Z,22.97
2018-06-10T06:54:42.215Z,22.57
2018-06-10T06:57:10.697Z,22.30
2018-06-10T06:59:39.252Z,21.43
2018-06-10T07:02:07.721Z,21.83
2018-06-10T07:04:36.353Z,21.47
2018-06-10T07:07:04.809Z,22.63
2018-06-10T07:09:33.281Z,21.30
2018-06-10T07:12:02.149Z,15.47
2018-06-10T07:14:30.610Z,17.40
2018-06-10T07:16:59.103Z,17.77
2018-06-10T07:19:27.729Z,18.90
2018-06-10T07:21:56.221Z,18.60
2018-06-10T07:24:24.715Z,17.13
2018-06-10T07:26:53.265Z,17.93
2018-06-10T07:29:21.857Z,19.60
2018-06-10T07:31:50.324Z,18.97
2018-06-10T07:34:18.827Z,18.30
2018-06-10T07:36:47.373Z,20.23
2018-06-10T07:39:15.865Z,20.40
2018-06-10T07:41:44.330Z,19.03
2018-06-10T07:44:13.606Z,19.83
2018-06-10T07:46:42.080Z,21.20
2018-06-10T07:49:10.594Z,21.73
2018-06-10T07:51:39.084Z,20.23
2018-06-10T07:54:07.781Z,19.00
2018-06-10T07:56:36.266Z,19.60
2018-06-10T07:59:04.784Z,20.60
2018-06-10T08:01:33.323Z,20.07
2018-06-10T08:04:01.793Z,15.80
2018-06-10T08:06:30.289Z,18.53
2018-06-10T08:08:58.900Z,17.07
2018-06-10T08:11:27.377Z,17.73
2018-06-10T08:13:55.903Z,16.40
2018-06-10T08:16:24.574Z,18.53
2018-06-10T08:18:53.077Z,17.33
2018-06-10T08:21:21.560Z,18.67
2018-06-10T08:23:50.155Z,19.07
2018-06-10T08:26:18.635Z,18.20
2018-06-10T08:28:47.139Z,19.03
2018-06-10T08:31:15.825Z,17.20
2018-06-10T08:33:44.293Z,17.50
2018-06-10T08:36:12.795Z,16.33
2018-06-10T08:38:41.318Z,14.50
2018-06-10T08:41:09.774Z,16.43
2018-06-10T08:43:38.278Z,15.93
2018-06-10T08:46:06.754Z,16.17
2018-06-10T08:48:35.250Z,14.30
2018-06-10T08:51:03.737Z,16.40
2018-06-10T08:53:32.253Z,13.60
2018-06-10T08:56:00.742Z,13.17
2018-06-10T08:58:29.213Z,14.10
2018-06-10T09:00:57.765Z,12.93
2018-06-10T09:03:26.258Z,13.40
2018-06-10T09:05:54.788Z,14.13
2018-06-10T09:08:23.283Z,13.00
2018-06-10T09:10:51.763Z,13.87
2018-06-10T09:13:20.436Z,13.67
2018-06-10T09:15:48.932Z,12.67
2018-06-10T09:18:17.391Z,15.10
2018-06-10T09:20:45.902Z,13.37
2018-06-10T09:23:14.398Z,11.93
2018-06-10T09:25:42.907Z,12.50
2018-06-10T09:28:11.902Z,10.57
2018-06-10T09:30:40.387Z,11.90
2018-06-10T09:33:08.865Z,12.57
2018-06-10T09:35:37.466Z,11.07
2018-06-10T09:38:06.066Z,11.50
2018-06-10T09:40:34.558Z,11.70
2018-06-10T09:43:03.206Z,11.80
2018-06-10T09:45:31.674Z,11.57
2018-06-10T09:48:00.182Z,11.17
2018-06-10T09:50:28.710Z,12.10
2018-06-10T09:52:57.706Z,13.50
2018-06-10T09:55:26.316Z,13.23
2018-06-10T09:57:54.846Z,12.53
2018-06-10T10:00:23.973Z,14.07
2018-06-10T10:02:52.477Z,14.33
2018-06-10T10:05:21.010Z,14.00
2018-06-10T10:07:49.485Z,11.73
2018-06-10T10:10:18.153Z,14.33
2018-06-10T10:12:46.818Z,16.07
2018-06-10T10:15:15.328Z,15.20
2018-06-10T10:17:43.937Z,13.40
2018-06-10T10:20:12.503Z,14.73
2018-06-10T10:22:41.031Z,12.70
2018-06-10T10:25:09.497Z,13.80
2018-06-10T10:27:39.493Z,14.10
2018-06-10T10:30:07.978Z,12.80
2018-06-10T10:32:36.470Z,14.57
2018-06-10T10:35:05.017Z,14.20
2018-06-10T10:37:33.564Z,14.60
2018-06-10T10:40:02.042Z,12.97
2018-06-10T10:42:30.530Z,14.33
2018-06-10T10:44:59.202Z,13.40
2018-06-10T10:47:28.170Z,13.70
2018-06-10T10:49:56.701Z,12.67
2018-06-10T10:52:25.220Z,13.57
2018-06-10T10:54:53.765Z,13.37
2018-06-10T10:57:22.232Z,13.20
2018-06-10T10:59:50.709Z,13.17
2018-06-10T11:02:19.213Z,12.57
2018-06-10T11:04:47.691Z,12.40
2018-06-10T11:07:16.210Z,12.77
2018-06-10T11:09:44.947Z,13.47
2018-06-10T11:12:13.417Z,14.07
2018-06-10T11:14:41.906Z,13.00
2018-06-10T11:17:10.729Z,12.40
2018-06-10T11:19:39.201Z,13.40
2018-06-10T11:22:07.717Z,12.63
2018-06-10T11:24:36.218Z,11.33
2018-06-10T11:27:04.799Z,13.60
2018-06-10T11:29:33.250Z,13.63
2018-06-10T11:32:01.776Z,12.77
2018-06-10T11:34:30.361Z,14.50
2018-06-10T11:36:59.214Z,14.17
2018-06-10T11:39:27.799Z,14.63
2018-06-10T11:41:56.281Z,13.47
2018-06-10T11:44:24.926Z,13.57
2018-06-10T11:46:53.409Z,14.27
2018-06-10T11:49:21.886Z,13.27
2018-06-10T11:51:50.383Z,12.70
2018-06-10T11:54:18.849Z,12.17
2018-06-10T11:56:47.341Z,12.00
2018-06-10T11:59:16.054Z,12.33
2018-06-10T12:01:44.535Z,11.10
2018-06-10T12:04:13.021Z,13.00
2018-06-10T12:06:41.546Z,11.00
2018-06-10T12:09:10.009Z,13.80
2018-06-10T12:11:38.485Z,11.47
2018-06-10T12:14:06.981Z,11.13
2018-06-10T12:16:35.543Z,11.97
2018-06-10T12:19:03.997Z,11.83
2018-06-10T12:21:32.475Z,14.00
2018-06-10T12:24:00.999Z,12.97
2018-06-10T12:26:29.529Z,13.53
2018-06-10T12:28:58.049Z,11.50
2018-06-10T12:31:26.685Z,11.40
2018-06-10T12:33:55.179Z,12.03
2018-06-10T12:36:23.697Z,11.60
2018-06-10T12:38:52.214Z,12.40
2018-06-10T12:41:20.724Z,13.43
2018-06-10T12:43:49.349Z,13.50
2018-06-10T12:46:17.829Z,12.37
2018-06-10T12:48:46.314Z,12.37
2018-06-10T12:51:14.814Z,12.20
2018-06-10T12:53:43.280Z,10.70
2018-06-10T12:56:11.915Z,11.90
2018-06-10T12:58:40.410Z,11.77
2018-06-10T13:01:08.882Z,11.57
2018-06-10T13:03:37.402Z,11.20
2018-06-10T13:06:06.014Z,12.23
2018-06-10T13:08:34.606Z,11.40
2018-06-10T13:11:03.076Z,11.37
2018-06-10T13:13:31.732Z,12.70
2018-06-10T13:16:00.242Z,11.97
2018-06-10T13:18:28.726Z,12.17
2018-06-10T13:20:57.569Z,12.63
2018-06-10T13:23:26.069Z,11.00
2018-06-10T13:25:54.626Z,11.33
2018-06-10T13:28:23.136Z,11.27
2018-06-10T13:30:51.633Z,11.87
2018-06-10T13:33:20.133Z,12.43
2018-06-10T13:36:51.655Z,11.90
2018-06-10T13:39:20.118Z,11.33
2018-06-10T13:41:48.651Z,12.20
2018-06-10T13:44:17.113Z,11.87
2018-06-10T13:46:45.586Z,10.87
2018-06-10T13:49:14.249Z,10.80
2018-06-10T13:51:42.753Z,12.97
2018-06-10T13:54:11.213Z,12.57
2018-06-10T13:56:39.721Z,11.50
2018-06-10T13:59:08.442Z,11.70
2018-06-10T14:01:36.909Z,12.00
2018-06-10T14:04:05.437Z,12.23
2018-06-10T14:06:33.987Z,12.23
2018-06-10T14:09:02.605Z,11.53
2018-06-10T14:11:31.101Z,12.27
2018-06-10T14:13:59.704Z,11.70
2018-06-10T14:16:28.237Z,12.80
2018-06-10T14:18:56.717Z,12.07
2018-06-10T14:21:25.279Z,11.73
2018-06-10T14:23:53.762Z,13.30
2018-06-10T14:26:22.245Z,11.63
2018-06-10T14:28:50.734Z,11.23
2018-06-10T14:31:19.699Z,10.90
2018-06-10T14:33:48.173Z,12.00
2018-06-10T14:36:16.685Z,11.30
2018-06-10T14:38:45.182Z,12.27
2018-06-10T14:41:13.677Z,11.53
2018-06-10T14:43:42.338Z,12.20
2018-06-10T14:46:10.870Z,12.33
2018-06-10T14:48:39.378Z,13.00
2018-06-10T14:51:07.866Z,11.30
2018-06-10T14:53:36.567Z,12.23
2018-06-10T14:56:05.062Z,14.20
2018-06-10T14:58:33.542Z,12.70
2018-06-10T16:23:00.309Z,9.80
2018-06-10T16:25:29.682Z,10.23
2018-06-10T16:27:58.161Z,8.87
2018-06-10T16:30:26.785Z,11.60
2018-06-10T16:32:55.273Z,11.07
2018-06-10T16:35:23.757Z,8.13
2018-06-10T16:37:52.321Z,8.13
2018-06-10T16:40:20.793Z,10.00
2018-06-10T16:42:49.313Z,9.30
2018-06-10T16:45:17.804Z,10.27
2018-06-10T16:47:46.282Z,10.77
2018-06-10T16:50:14.793Z,9.40
2018-06-10T16:52:43.253Z,11.60
2018-06-10T16:55:11.738Z,11.63
2018-06-10T16:57:40.669Z,11.30
2018-06-10T17:00:09.167Z,10.30
2018-06-10T17:02:37.649Z,10.90
2018-06-10T17:05:06.678Z,11.40
2018-06-10T17:07:35.157Z,11.07
2018-06-10T17:10:03.693Z,11.50
2018-06-10T17:12:32.193Z,8.63
2018-06-10T17:15:00.702Z,12.20
2018-06-10T17:17:29.313Z,11.80
2018-06-10T17:19:57.883Z,9.63
2018-06-10T17:22:26.477Z,9.60
2018-06-10T17:24:54.949Z,10.07
2018-06-10T17:27:24.854Z,10.50
2018-06-10T17:29:58.485Z,10.33
2018-06-10T17:32:27.513Z,11.33
2018-06-10T17:34:56.020Z,10.07
2018-06-10T17:37:24.523Z,10.00
2018-06-10T17:39:53.598Z,8.80
2018-06-10T17:42:22.116Z,9.63
2018-06-10T17:44:50.715Z,10.70
2018-06-10T17:47:19.217Z,9.60
2018-06-10T17:49:48.354Z,8.67
2018-06-10T17:52:16.913Z,10.60
2018-06-10T17:54:45.360Z,10.90
2018-06-10T17:57:14.406Z,11.10
2018-06-10T17:59:42.899Z,10.03
2018-06-10T18:02:11.371Z,10.70
2018-06-10T18:04:39.970Z,11.27
2018-06-10T18:07:08.473Z,10.90
2018-06-10T18:09:36.949Z,11.20
2018-06-10T18:12:05.581Z,10.30
2018-06-10T18:14:34.064Z,10.93
2018-06-10T18:17:02.675Z,10.10
2018-06-10T18:19:32.637Z,11.60
2018-06-10T18:22:01.219Z,11.27
2018-06-10T18:24:29.906Z,10.50
2018-06-10T18:26:58.455Z,10.87
2018-06-10T18:29:27.158Z,10.80
2018-06-10T18:31:56.156Z,10.90
2018-06-10T18:34:24.751Z,10.27
2018-06-10T18:36:53.281Z,10.30
2018-06-10T18:39:21.800Z,10.90
2018-06-10T18:41:50.345Z,10.63
2018-06-10T18:44:18.904Z,11.00
2018-06-10T18:46:50.590Z,10.07
2018-06-10T18:49:19.156Z,10.20
2018-06-10T18:51:50.207Z,10.67
2018-06-10T18:54:19.206Z,9.67
2018-06-10T18:56:47.734Z,10.80
2018-06-10T18:59:16.338Z,10.87
2018-06-10T19:01:45.066Z,10.80
2018-06-10T19:04:13.541Z,10.87
2018-06-10T19:06:42.030Z,10.83
2018-06-10T19:09:11.051Z,8.20
2018-06-10T19:11:39.557Z,9.60
2018-06-10T19:14:08.105Z,11.50
2018-06-10T19:16:37.089Z,9.37
2018-06-10T19:19:05.598Z,9.57
2018-06-10T19:21:34.101Z,11.40
2018-06-10T19:24:02.610Z,10.50
2018-06-10T19:26:31.090Z,10.73
2018-06-10T19:28:59.716Z,10.60
2018-06-10T19:31:28.202Z,10.40
2018-06-10T19:33:56.828Z,10.43
2018-06-10T19:36:25.726Z,9.90
2018-06-10T19:38:54.225Z,10.90
2018-06-10T19:41:22.743Z,9.53
2018-06-10T19:43:51.462Z,10.10
2018-06-10T19:46:19.970Z,9.83
2018-06-10T19:48:48.499Z,10.77
2018-06-10T19:51:17.270Z,10.23
2018-06-10T19:53:45.784Z,10.07
2018-06-10T19:56:14.370Z,10.83
2018-06-10T19:58:42.910Z,11.27
2018-06-10T20:01:11.414Z,11.27
2018-06-10T20:03:40.178Z,12.00
2018-06-10T20:06:08.697Z,9.87
2018-06-10T20:08:37.184Z,11.77
2018-06-10T20:11:05.831Z,11.17
2018-06-10T20:13:34.309Z,11.27
2018-06-10T20:16:02.826Z,10.53
2018-06-10T20:18:31.322Z,10.00
2018-06-10T20:20:59.845Z,10.60
2018-06-10T20:23:28.285Z,9.97
2018-06-10T20:25:56.978Z,11.60
2018-06-10T20:28:25.437Z,10.03
2018-06-10T20:30:53.911Z,9.70
2018-06-10T20:33:22.421Z,10.90
2018-06-10T20:35:50.888Z,10.30
2018-06-10T20:38:19.365Z,9.87
2018-06-10T20:40:47.869Z,9.53
2018-06-10T20:43:16.349Z,10.07
2018-06-10T20:45:45.387Z,9.03
2018-06-10T20:48:13.885Z,9.43
2018-06-10T20:50:42.420Z,9.80
2018-06-10T20:53:10.974Z,8.33
2018-06-10T20:55:39.429Z,9.30
2018-06-10T20:58:07.892Z,9.93
2018-06-10T21:00:36.858Z,8.90
2018-06-10T21:03:05.597Z,9.20
2018-06-10T21:05:34.087Z,8.00
2018-06-10T21:08:02.957Z,7.83
2018-06-10T21:10:31.421Z,8.43
2018-06-10T21:12:59.889Z,8.50
2018-06-10T21:15:28.429Z,8.60
2018-06-10T21:17:56.923Z,8.63
2018-06-10T21:20:25.417Z,8.03
2018-06-10T21:22:54.086Z,8.33
2018-06-10T21:25:22.560Z,7.57
2018-06-10T21:27:51.021Z,9.17
2018-06-10T21:30:19.534Z,7.83
2018-06-10T21:32:48.029Z,8.13
2018-06-10T21:35:16.549Z,7.70
2018-06-10T21:37:45.200Z,8.67
2018-06-10T21:40:13.685Z,7.70
2018-06-10T21:42:42.181Z,6.93
2018-06-10T21:45:10.707Z,7.70
2018-06-10T21:47:39.394Z,7.80
2018-06-10T21:50:07.894Z,7.70
2018-06-10T21:52:36.595Z,7.40
2018-06-10T21:55:05.082Z,8.20
2018-06-10T21:57:33.582Z,7.60
2018-06-10T22:00:02.079Z,7.60
2018-06-10T22:02:30.618Z,7.40
2018-06-10T22:04:59.077Z,6.57
2018-06-10T22:07:27.541Z,7.77
2018-06-10T22:09:56.066Z,7.50
2018-06-10T22:12:24.534Z,7.23
2018-06-10T22:14:52.997Z,6.87
2018-06-10T22:17:21.477Z,6.70
2018-06-10T22:19:50.104Z,6.53
2018-06-10T22:22:18.602Z,6.90
2018-06-10T22:24:47.151Z,7.17
2018-06-10T22:27:15.676Z,7.50
2018-06-10T22:29:44.151Z,6.70
2018-06-10T22:32:12.819Z,7.13
2018-06-10T22:34:41.285Z,7.37
2018-06-10T22:37:09.757Z,7.80
2018-06-10T22:39:38.253Z,7.20
2018-06-10T22:42:07.032Z,8.20
2018-06-10T22:44:35.664Z,7.93
2018-06-10T22:47:04.186Z,7.73
2018-06-10T22:49:32.628Z,7.10
2018-06-10T22:52:01.229Z,8.17
2018-06-10T22:54:38.679Z,7.03
2018-06-10T22:57:07.933Z,7.20
2018-06-10T22:59:36.427Z,7.77
2018-06-10T23:02:06.073Z,8.93
2018-06-10T23:04:34.826Z,8.20
2018-06-10T23:07:03.351Z,9.30
2018-06-10T23:09:32.022Z,8.37
2018-06-10T23:12:00.485Z,9.00
2018-06-10T23:14:29.005Z,8.00
2018-06-10T23:16:57.507Z,7.87
2018-06-10T23:19:26.018Z,8.70
2018-06-10T23:21:54.521Z,8.13
2018-06-10T23:24:22.998Z,9.63
2018-06-10T23:26:51.560Z,9.33
2018-06-10T23:29:20.083Z,9.53
2018-06-10T23:31:48.577Z,8.97
2018-06-10T23:34:17.559Z,8.60
2018-06-10T23:36:46.129Z,9.17
2018-06-10T23:39:14.619Z,10.00
2018-06-10T23:41:43.278Z,9.70
2018-06-10T23:44:11.746Z,9.50
2018-06-10T23:46:40.382Z,9.43
2018-06-10T23:49:08.906Z,9.00
2018-06-10T23:51:37.420Z,10.10
2018-06-10T23:54:05.897Z,9.77
2018-06-10T23:56:34.371Z,9.10
2018-06-10T23:59:02.881Z,8.50
